sensor_id;sensor_type;location;lat;lon;timestamp;pressure;altitude;pressure_sealevel;temperature;humidity
27020;BME280;76819;49.098;11.826;2024-03-22T00:00:19;96845.63;;;9.83;59.88
27020;BME280;76819;49.098;11.826;2024-03-22T00:05:22;96842.59;;;9.65;60.24
27020;BME280;76819;49.098;11.826;2024-03-22T00:10:24;96833.63;;;9.59;60.50
27020;BME280;76819;49.098;11.826;2024-03-22T00:15:26;96828.22;;;9.67;60.35
27020;BME280;76819;49.098;11.826;2024-03-22T00:20:29;96828.13;;;9.75;60.16
27020;BME280;76819;49.098;11.826;2024-03-22T00:25:31;96826.56;;;9.81;60.07
27020;BME280;76819;49.098;11.826;2024-03-22T00:30:32;96815.84;;;9.82;60.27
27020;BME280;76819;49.098;11.826;2024-03-22T00:35:36;96815.25;;;9.87;60.89
27020;BME280;76819;49.098;11.826;2024-03-22T00:40:37;96809.22;;;9.93;61.08
27020;BME280;76819;49.098;11.826;2024-03-22T00:45:39;96796.75;;;10.01;61.24
27020;BME280;76819;49.098;11.826;2024-03-22T00:50:42;96797.19;;;10.05;61.07
27020;BME280;76819;49.098;11.826;2024-03-22T00:55:44;96793.16;;;10.09;61.04
27020;BME280;76819;49.098;11.826;2024-03-22T01:00:46;96783.88;;;10.13;60.82
27020;BME280;76819;49.098;11.826;2024-03-22T01:05:49;96789.13;;;10.13;61.00
27020;BME280;76819;49.098;11.826;2024-03-22T01:10:51;96780.41;;;10.13;60.65
27020;BME280;76819;49.098;11.826;2024-03-22T01:15:53;96781.78;;;10.08;60.65
27020;BME280;76819;49.098;11.826;2024-03-22T01:20:56;96777.53;;;10.07;60.74
27020;BME280;76819;49.098;11.826;2024-03-22T01:25:58;96781.56;;;10.03;60.51
27020;BME280;76819;49.098;11.826;2024-03-22T01:30:59;96780.00;;;9.88;60.12
27020;BME280;76819;49.098;11.826;2024-03-22T01:36:03;96778.50;;;9.79;59.85
27020;BME280;76819;49.098;11.826;2024-03-22T01:41:06;96781.69;;;9.74;59.63
27020;BME280;76819;49.098;11.826;2024-03-22T01:46:08;96773.09;;;9.66;59.83
27020;BME280;76819;49.098;11.826;2024-03-22T01:51:11;96765.56;;;9.63;60.57
27020;BME280;76819;49.098;11.826;2024-03-22T01:56:13;96761.56;;;9.67;60.63
27020;BME280;76819;49.098;11.826;2024-03-22T02:01:16;96755.84;;;9.63;60.88
27020;BME280;76819;49.098;11.826;2024-03-22T02:06:19;96747.88;;;9.56;61.01
27020;BME280;76819;49.098;11.826;2024-03-22T02:11:21;96739.97;;;9.56;61.22
27020;BME280;76819;49.098;11.826;2024-03-22T02:16:22;96732.69;;;9.58;61.23
27020;BME280;76819;49.098;11.826;2024-03-22T02:21:25;96727.41;;;9.58;61.19
27020;BME280;76819;49.098;11.826;2024-03-22T02:26:28;96724.97;;;9.57;60.44
27020;BME280;76819;49.098;11.826;2024-03-22T02:31:30;96716.75;;;9.45;59.85
27020;BME280;76819;49.098;11.826;2024-03-22T02:36:32;96721.50;;;9.35;59.49
27020;BME280;76819;49.098;11.826;2024-03-22T02:41:36;96714.91;;;9.25;59.36
27020;BME280;76819;49.098;11.826;2024-03-22T02:46:37;96722.09;;;9.16;59.21
27020;BME280;76819;49.098;11.826;2024-03-22T02:51:39;96704.53;;;9.02;58.48
27020;BME280;76819;49.098;11.826;2024-03-22T02:56:42;96702.38;;;8.91;58.55
27020;BME280;76819;49.098;11.826;2024-03-22T03:01:44;96694.22;;;8.86;58.40
27020;BME280;76819;49.098;11.826;2024-03-22T03:06:45;96690.25;;;8.75;58.30
27020;BME280;76819;49.098;11.826;2024-03-22T03:11:48;96704.44;;;8.60;58.47
27020;BME280;76819;49.098;11.826;2024-03-22T03:16:50;96691.84;;;8.55;58.49
27020;BME280;76819;49.098;11.826;2024-03-22T03:21:52;96694.81;;;8.52;58.65
27020;BME280;76819;49.098;11.826;2024-03-22T03:26:55;96690.09;;;8.47;59.23
27020;BME280;76819;49.098;11.826;2024-03-22T03:31:56;96690.84;;;8.41;59.79
27020;BME280;76819;49.098;11.826;2024-03-22T03:36:58;96696.81;;;8.35;59.64
27020;BME280;76819;49.098;11.826;2024-03-22T03:42:03;96692.31;;;8.29;59.70
27020;BME280;76819;49.098;11.826;2024-03-22T03:47:05;96682.56;;;8.30;60.13
27020;BME280;76819;49.098;11.826;2024-03-22T03:52:06;96658.88;;;8.15;59.83
27020;BME280;76819;49.098;11.826;2024-03-22T03:57:10;96657.34;;;8.06;59.55
27020;BME280;76819;49.098;11.826;2024-03-22T04:02:11;96660.81;;;8.07;59.68
27020;BME280;76819;49.098;11.826;2024-03-22T04:07:13;96661.94;;;8.04;59.20
27020;BME280;76819;49.098;11.826;2024-03-22T04:12:16;96660.72;;;8.00;59.56
27020;BME280;76819;49.098;11.826;2024-03-22T04:17:18;96664.06;;;7.94;59.33
27020;BME280;76819;49.098;11.826;2024-03-22T04:22:19;96660.16;;;7.90;59.47
27020;BME280;76819;49.098;11.826;2024-03-22T04:27:22;96666.59;;;7.87;59.22
27020;BME280;76819;49.098;11.826;2024-03-22T04:32:24;96668.94;;;7.60;59.50
27020;BME280;76819;49.098;11.826;2024-03-22T04:37:26;96666.88;;;7.55;59.66
27020;BME280;76819;49.098;11.826;2024-03-22T04:42:29;96662.16;;;7.51;60.01
27020;BME280;76819;49.098;11.826;2024-03-22T04:47:31;96664.41;;;7.54;59.77
27020;BME280;76819;49.098;11.826;2024-03-22T04:52:32;96657.81;;;7.58;59.75
27020;BME280;76819;49.098;11.826;2024-03-22T04:57:35;96658.09;;;7.63;59.46
27020;BME280;76819;49.098;11.826;2024-03-22T05:02:37;96658.34;;;7.53;60.14
27020;BME280;76819;49.098;11.826;2024-03-22T05:07:39;96661.88;;;7.45;59.86
27020;BME280;76819;49.098;11.826;2024-03-22T05:12:42;96662.84;;;7.44;59.66
27020;BME280;76819;49.098;11.826;2024-03-22T05:17:43;96657.25;;;7.47;60.23
27020;BME280;76819;49.098;11.826;2024-03-22T05:22:47;96658.19;;;7.55;59.89
27020;BME280;76819;49.098;11.826;2024-03-22T05:27:50;96648.88;;;7.67;60.40
27020;BME280;76819;49.098;11.826;2024-03-22T05:32:52;96645.28;;;7.82;60.73
27020;BME280;76819;49.098;11.826;2024-03-22T05:37:54;96644.47;;;7.96;60.34
27020;BME280;76819;49.098;11.826;2024-03-22T05:42:57;96641.22;;;8.09;61.02
27020;BME280;76819;49.098;11.826;2024-03-22T05:47:58;96637.50;;;8.18;61.25
27020;BME280;76819;49.098;11.826;2024-03-22T05:53:00;96637.88;;;8.30;61.83
27020;BME280;76819;49.098;11.826;2024-03-22T05:58:03;96644.69;;;8.39;61.59
27020;BME280;76819;49.098;11.826;2024-03-22T06:03:05;96636.16;;;8.52;61.92
27020;BME280;76819;49.098;11.826;2024-03-22T06:08:07;96621.97;;;8.67;61.91
27020;BME280;76819;49.098;11.826;2024-03-22T06:13:10;96621.28;;;8.80;62.04
27020;BME280;76819;49.098;11.826;2024-03-22T06:18:11;96623.47;;;8.97;61.81
27020;BME280;76819;49.098;11.826;2024-03-22T06:23:13;96610.34;;;9.19;61.93
27020;BME280;76819;49.098;11.826;2024-03-22T06:28:16;96608.88;;;9.37;62.35
27020;BME280;76819;49.098;11.826;2024-03-22T06:33:18;96610.41;;;9.53;62.16
27020;BME280;76819;49.098;11.826;2024-03-22T06:38:20;96603.19;;;9.62;62.34
27020;BME280;76819;49.098;11.826;2024-03-22T06:43:23;96598.53;;;9.64;62.05
27020;BME280;76819;49.098;11.826;2024-03-22T06:48:24;96591.75;;;9.76;62.33
27020;BME280;76819;49.098;11.826;2024-03-22T06:53:26;96586.56;;;9.89;62.61
27020;BME280;76819;49.098;11.826;2024-03-22T06:58:29;96588.63;;;10.00;62.75
27020;BME280;76819;49.098;11.826;2024-03-22T07:03:31;96592.34;;;10.12;62.54
27020;BME280;76819;49.098;11.826;2024-03-22T07:08:33;96592.66;;;10.24;62.70
27020;BME280;76819;49.098;11.826;2024-03-22T07:13:36;96588.63;;;10.34;62.83
27020;BME280;76819;49.098;11.826;2024-03-22T07:18:38;96594.59;;;10.49;63.13
27020;BME280;76819;49.098;11.826;2024-03-22T07:23:40;96591.59;;;10.66;63.02
27020;BME280;76819;49.098;11.826;2024-03-22T07:28:43;96595.09;;;10.86;63.21
27020;BME280;76819;49.098;11.826;2024-03-22T07:33:44;96593.09;;;11.07;62.97
27020;BME280;76819;49.098;11.826;2024-03-22T07:38:46;96589.47;;;11.28;62.90
27020;BME280;76819;49.098;11.826;2024-03-22T07:43:50;96596.59;;;11.47;62.22
27020;BME280;76819;49.098;11.826;2024-03-22T07:48:52;96589.06;;;11.64;61.96
27020;BME280;76819;49.098;11.826;2024-03-22T07:53:54;96579.72;;;11.75;61.95
27020;BME280;76819;49.098;11.826;2024-03-22T07:58:57;96580.09;;;11.85;62.14
27020;BME280;76819;49.098;11.826;2024-03-22T08:03:59;96584.16;;;12.00;61.82
27020;BME280;76819;49.098;11.826;2024-03-22T08:09:00;96587.56;;;12.14;61.23
27020;BME280;76819;49.098;11.826;2024-03-22T08:14:04;96575.09;;;12.34;60.74
27020;BME280;76819;49.098;11.826;2024-03-22T08:19:06;96564.44;;;12.54;60.51
27020;BME280;76819;49.098;11.826;2024-03-22T08:24:07;96570.66;;;12.72;60.35
27020;BME280;76819;49.098;11.826;2024-03-22T08:29:10;96562.53;;;12.99;60.33
27020;BME280;76819;49.098;11.826;2024-03-22T08:34:13;96564.44;;;13.23;60.05
27020;BME280;76819;49.098;11.826;2024-03-22T08:39:15;96564.88;;;13.45;59.74
27020;BME280;76819;49.098;11.826;2024-03-22T08:44:18;96565.63;;;13.76;59.49
27020;BME280;76819;49.098;11.826;2024-03-22T08:49:20;96557.25;;;13.98;59.35
27020;BME280;76819;49.098;11.826;2024-03-22T08:54:22;96555.25;;;14.11;59.27
27020;BME280;76819;49.098;11.826;2024-03-22T08:59:25;96549.59;;;14.26;59.45
27020;BME280;76819;49.098;11.826;2024-03-22T09:04:26;96551.56;;;14.49;59.42
27020;BME280;76819;49.098;11.826;2024-03-22T09:09:28;96545.53;;;14.60;59.41
27020;BME280;76819;49.098;11.826;2024-03-22T09:14:31;96528.88;;;14.82;58.70
27020;BME280;76819;49.098;11.826;2024-03-22T09:19:33;96522.91;;;14.99;57.85
27020;BME280;76819;49.098;11.826;2024-03-22T09:24:35;96527.22;;;15.11;57.21
27020;BME280;76819;49.098;11.826;2024-03-22T09:29:38;96527.59;;;15.26;57.03
27020;BME280;76819;49.098;11.826;2024-03-22T09:34:40;96524.59;;;15.46;56.62
27020;BME280;76819;49.098;11.826;2024-03-22T09:39:43;96521.97;;;15.58;56.09
27020;BME280;76819;49.098;11.826;2024-03-22T09:44:48;96525.91;;;15.67;55.84
27020;BME280;76819;49.098;11.826;2024-03-22T09:49:51;96517.69;;;15.92;55.32
27020;BME280;76819;49.098;11.826;2024-03-22T09:54:53;96509.47;;;15.58;53.59
27020;BME280;76819;49.098;11.826;2024-03-22T09:59:57;96507.47;;;15.42;54.14
27020;BME280;76819;49.098;11.826;2024-03-22T10:04:59;96503.25;;;15.76;53.48
27020;BME280;76819;49.098;11.826;2024-03-22T10:10:03;96498.59;;;15.95;53.58
27020;BME280;76819;49.098;11.826;2024-03-22T10:15:06;96493.31;;;16.23;52.65
27020;BME280;76819;49.098;11.826;2024-03-22T10:20:12;96484.47;;;16.34;52.75
27020;BME280;76819;49.098;11.826;2024-03-22T10:25:14;96479.00;;;16.40;51.78
27020;BME280;76819;49.098;11.826;2024-03-22T10:30:17;96462.97;;;16.52;51.48
27020;BME280;76819;49.098;11.826;2024-03-22T10:35:19;96452.63;;;16.67;51.64
27020;BME280;76819;49.098;11.826;2024-03-22T10:40:20;96459.63;;;17.18;50.83
27020;BME280;76819;49.098;11.826;2024-03-22T10:45:24;96448.66;;;16.70;50.60
27020;BME280;76819;49.098;11.826;2024-03-22T10:50:29;96435.84;;;16.83;51.05
27020;BME280;76819;49.098;11.826;2024-03-22T10:55:34;96433.97;;;16.39;51.36
27020;BME280;76819;49.098;11.826;2024-03-22T11:00:41;96432.25;;;16.61;51.19
27020;BME280;76819;49.098;11.826;2024-03-22T11:05:47;96423.13;;;16.29;52.34
27020;BME280;76819;49.098;11.826;2024-03-22T11:10:49;96421.56;;;17.23;50.69
27020;BME280;76819;49.098;11.826;2024-03-22T11:15:52;96407.69;;;17.59;49.78
27020;BME280;76819;49.098;11.826;2024-03-22T11:20:53;96401.34;;;17.48;49.37
27020;BME280;76819;49.098;11.826;2024-03-22T11:25:56;96388.16;;;18.24;47.76
27020;BME280;76819;49.098;11.826;2024-03-22T11:30:59;96385.06;;;18.59;46.30
27020;BME280;76819;49.098;11.826;2024-03-22T11:36:02;96369.75;;;19.18;45.62
27020;BME280;76819;49.098;11.826;2024-03-22T11:41:05;96363.16;;;18.62;45.32
27020;BME280;76819;49.098;11.826;2024-03-22T11:46:09;96349.38;;;19.53;44.44
27020;BME280;76819;49.098;11.826;2024-03-22T11:51:11;96340.75;;;20.14;42.84
27020;BME280;76819;49.098;11.826;2024-03-22T11:56:12;96333.59;;;20.39;42.05
27020;BME280;76819;49.098;11.826;2024-03-22T12:01:16;96315.91;;;20.58;42.03
27020;BME280;76819;49.098;11.826;2024-03-22T12:06:17;96322.09;;;20.69;42.08
27020;BME280;76819;49.098;11.826;2024-03-22T12:11:19;96317.28;;;20.61;42.03
27020;BME280;76819;49.098;11.826;2024-03-22T12:16:22;96295.78;;;20.36;40.19
27020;BME280;76819;49.098;11.826;2024-03-22T12:21:24;96293.38;;;20.95;38.89
27020;BME280;76819;49.098;11.826;2024-03-22T12:26:26;96282.13;;;20.83;38.70
27020;BME280;76819;49.098;11.826;2024-03-22T12:31:29;96268.38;;;19.93;42.38
27020;BME280;76819;49.098;11.826;2024-03-22T12:36:31;96254.97;;;19.98;41.81
27020;BME280;76819;49.098;11.826;2024-03-22T12:41:33;96254.38;;;19.71;40.65
27020;BME280;76819;49.098;11.826;2024-03-22T12:46:36;96237.88;;;20.30;40.24
27020;BME280;76819;49.098;11.826;2024-03-22T12:51:38;96238.13;;;20.13;39.79
27020;BME280;76819;49.098;11.826;2024-03-22T12:56:40;96227.84;;;19.65;40.52
27020;BME280;76819;49.098;11.826;2024-03-22T13:01:43;96220.66;;;19.95;39.88
27020;BME280;76819;49.098;11.826;2024-03-22T13:06:45;96214.81;;;20.54;38.97
27020;BME280;76819;49.098;11.826;2024-03-22T13:11:46;96211.88;;;20.30;39.02
27020;BME280;76819;49.098;11.826;2024-03-22T13:16:49;96196.56;;;20.56;38.63
27020;BME280;76819;49.098;11.826;2024-03-22T13:21:51;96199.75;;;20.78;38.53
27020;BME280;76819;49.098;11.826;2024-03-22T13:26:53;96174.25;;;20.76;39.04
27020;BME280;76819;49.098;11.826;2024-03-22T13:31:56;96171.94;;;20.34;40.23
27020;BME280;76819;49.098;11.826;2024-03-22T13:36:58;96162.69;;;20.85;39.24
27020;BME280;76819;49.098;11.826;2024-03-22T13:42:01;96155.56;;;20.30;40.80
27020;BME280;76819;49.098;11.826;2024-03-22T13:47:05;96150.41;;;19.53;42.32
27020;BME280;76819;49.098;11.826;2024-03-22T13:52:06;96139.41;;;20.71;41.20
27020;BME280;76819;49.098;11.826;2024-03-22T13:57:08;96126.78;;;21.40;39.40
27020;BME280;76819;49.098;11.826;2024-03-22T14:02:11;96116.00;;;21.45;40.09
27020;BME280;76819;49.098;11.826;2024-03-22T14:07:13;96106.28;;;23.41;36.93
27020;BME280;76819;49.098;11.826;2024-03-22T14:12:15;96102.66;;;22.60;37.40
27020;BME280;76819;49.098;11.826;2024-03-22T14:17:18;96108.16;;;19.90;42.37
27020;BME280;76819;49.098;11.826;2024-03-22T14:22:19;96097.97;;;19.87;42.41
27020;BME280;76819;49.098;11.826;2024-03-22T14:27:21;96092.34;;;19.64;43.13
27020;BME280;76819;49.098;11.826;2024-03-22T14:32:24;96079.75;;;19.59;43.45
27020;BME280;76819;49.098;11.826;2024-03-22T14:37:26;96072.47;;;20.35;41.96
27020;BME280;76819;49.098;11.826;2024-03-22T14:42:28;96065.53;;;20.88;40.37
27020;BME280;76819;49.098;11.826;2024-03-22T14:47:32;96061.13;;;21.13;40.00
27020;BME280;76819;49.098;11.826;2024-03-22T14:52:33;96042.28;;;21.23;39.73
27020;BME280;76819;49.098;11.826;2024-03-22T14:57:35;96029.84;;;21.71;38.94
27020;BME280;76819;49.098;11.826;2024-03-22T15:02:38;96031.63;;;22.14;37.31
27020;BME280;76819;49.098;11.826;2024-03-22T15:07:40;96010.72;;;23.98;35.33
27020;BME280;76819;49.098;11.826;2024-03-22T15:12:42;96015.00;;;23.53;34.61
27020;BME280;76819;49.098;11.826;2024-03-22T15:17:45;96006.09;;;24.85;33.50
27020;BME280;76819;49.098;11.826;2024-03-22T15:22:46;96010.09;;;23.41;34.40
27020;BME280;76819;49.098;11.826;2024-03-22T15:27:48;95995.25;;;22.64;35.55
27020;BME280;76819;49.098;11.826;2024-03-22T15:32:51;95987.63;;;24.24;33.93
27020;BME280;76819;49.098;11.826;2024-03-22T15:37:55;95975.44;;;23.16;34.79
27020;BME280;76819;49.098;11.826;2024-03-22T15:42:57;95974.66;;;22.78;35.70
27020;BME280;76819;49.098;11.826;2024-03-22T15:48:00;95968.16;;;23.49;34.25
27020;BME280;76819;49.098;11.826;2024-03-22T15:53:03;95968.06;;;23.22;34.98
27020;BME280;76819;49.098;11.826;2024-03-22T15:58:05;95964.28;;;22.85;34.97
27020;BME280;76819;49.098;11.826;2024-03-22T16:03:08;95962.06;;;21.79;36.56
27020;BME280;76819;49.098;11.826;2024-03-22T16:08:11;95960.41;;;21.54;37.04
27020;BME280;76819;49.098;11.826;2024-03-22T16:13:13;95955.72;;;21.36;37.67
27020;BME280;76819;49.098;11.826;2024-03-22T16:18:16;95953.00;;;20.63;38.98
27020;BME280;76819;49.098;11.826;2024-03-22T16:23:18;95949.97;;;20.26;40.24
27020;BME280;76819;49.098;11.826;2024-03-22T16:28:20;95941.66;;;20.27;40.12
27020;BME280;76819;49.098;11.826;2024-03-22T16:33:23;95954.81;;;20.29;40.00
27020;BME280;76819;49.098;11.826;2024-03-22T16:38:25;95941.56;;;19.53;41.81
27020;BME280;76819;49.098;11.826;2024-03-22T16:43:27;95932.72;;;19.63;41.37
27020;BME280;76819;49.098;11.826;2024-03-22T16:48:30;95934.84;;;19.66;41.53
27020;BME280;76819;49.098;11.826;2024-03-22T16:53:32;95928.94;;;19.79;41.46
27020;BME280;76819;49.098;11.826;2024-03-22T16:58:33;95921.53;;;19.56;41.98
27020;BME280;76819;49.098;11.826;2024-03-22T17:03:36;95923.94;;;19.52;42.14
27020;BME280;76819;49.098;11.826;2024-03-22T17:08:38;95923.69;;;18.98;43.64
27020;BME280;76819;49.098;11.826;2024-03-22T17:13:40;95915.66;;;19.13;43.28
27020;BME280;76819;49.098;11.826;2024-03-22T17:18:43;95908.13;;;19.15;43.34
27020;BME280;76819;49.098;11.826;2024-03-22T17:23:45;95897.69;;;19.19;43.37
27020;BME280;76819;49.098;11.826;2024-03-22T17:28:47;95899.59;;;18.98;43.85
27020;BME280;76819;49.098;11.826;2024-03-22T17:33:51;95903.06;;;18.78;44.51
27020;BME280;76819;49.098;11.826;2024-03-22T17:38:53;95907.84;;;18.56;45.08
27020;BME280;76819;49.098;11.826;2024-03-22T17:43:56;95903.56;;;18.55;45.26
27020;BME280;76819;49.098;11.826;2024-03-22T17:48:59;95911.09;;;18.63;45.25
27020;BME280;76819;49.098;11.826;2024-03-22T17:54:01;95904.69;;;18.69;45.27
27020;BME280;76819;49.098;11.826;2024-03-22T17:59:03;95903.59;;;18.80;45.93
27020;BME280;76819;49.098;11.826;2024-03-22T18:04:06;95895.84;;;18.84;46.51
27020;BME280;76819;49.098;11.826;2024-03-22T18:09:07;95900.38;;;18.83;47.99
27020;BME280;76819;49.098;11.826;2024-03-22T18:14:10;95900.38;;;18.73;48.83
27020;BME280;76819;49.098;11.826;2024-03-22T18:19:13;95898.25;;;18.65;49.24
27020;BME280;76819;49.098;11.826;2024-03-22T18:24:15;95884.34;;;18.53;49.72
27020;BME280;76819;49.098;11.826;2024-03-22T18:29:19;95882.94;;;18.40;50.40
27020;BME280;76819;49.098;11.826;2024-03-22T18:34:23;95874.88;;;18.25;51.49
27020;BME280;76819;49.098;11.826;2024-03-22T18:39:25;95876.19;;;18.13;52.09
27020;BME280;76819;49.098;11.826;2024-03-22T18:44:26;95870.03;;;18.02;52.62
27020;BME280;76819;49.098;11.826;2024-03-22T18:49:30;95864.38;;;17.93;52.90
27020;BME280;76819;49.098;11.826;2024-03-22T18:54:32;95863.84;;;17.86;53.62
27020;BME280;76819;49.098;11.826;2024-03-22T18:59:34;95870.72;;;17.72;54.00
27020;BME280;76819;49.098;11.826;2024-03-22T19:04:37;95858.84;;;17.53;54.38
27020;BME280;76819;49.098;11.826;2024-03-22T19:09:39;95856.69;;;17.45;54.75
27020;BME280;76819;49.098;11.826;2024-03-22T19:14:42;95853.69;;;17.36;55.82
27020;BME280;76819;49.098;11.826;2024-03-22T19:19:45;95844.56;;;17.27;56.22
27020;BME280;76819;49.098;11.826;2024-03-22T19:24:47;95846.69;;;17.25;56.10
27020;BME280;76819;49.098;11.826;2024-03-22T19:29:49;95831.97;;;17.18;56.26
27020;BME280;76819;49.098;11.826;2024-03-22T19:34:52;95817.53;;;17.14;56.02
27020;BME280;76819;49.098;11.826;2024-03-22T19:39:53;95821.81;;;17.10;55.49
27020;BME280;76819;49.098;11.826;2024-03-22T19:44:55;95828.41;;;17.02;55.41
27020;BME280;76819;49.098;11.826;2024-03-22T19:49:58;95817.38;;;16.88;55.66
27020;BME280;76819;49.098;11.826;2024-03-22T19:55:00;95815.25;;;16.85;55.68
27020;BME280;76819;49.098;11.826;2024-03-22T20:00:02;95807.75;;;16.82;55.94
27020;BME280;76819;49.098;11.826;2024-03-22T20:05:07;95807.22;;;16.80;56.17
27020;BME280;76819;49.098;11.826;2024-03-22T20:10:08;95820.28;;;16.82;56.31
27020;BME280;76819;49.098;11.826;2024-03-22T20:15:10;95814.16;;;16.81;56.85
27020;BME280;76819;49.098;11.826;2024-03-22T20:20:13;95810.13;;;16.79;57.05
27020;BME280;76819;49.098;11.826;2024-03-22T20:25:15;95813.81;;;16.73;57.26
27020;BME280;76819;49.098;11.826;2024-03-22T20:30:17;95810.84;;;16.69;57.58
27020;BME280;76819;49.098;11.826;2024-03-22T20:35:20;95803.94;;;16.68;57.52
